INFORMACIÓN METAR y TAF
METAR FOR LFKJ
ADDS - METARS form results

(0506 UTC 17 January 2022)
Data provider http://aviationweather.gov/metar/data/
 
METAR text: LFKJ 170500Z AUTO 04008KT CAVOK 04/01 Q1027 NOSIG
Conditions at: LFKJ (AJACCIO/CAMPO OR, FR) observed 0500 UTC 17 January 2022
Temperature: 4.0°C (39°F)
Dewpoint: 1.0°C (34°F) [RH = 81%]
Pressure (altimeter): 30.32 inches Hg (1027.0 mb)
Winds: from the NE (40 degrees) at 9 MPH (8 knots; 4.1 m/s)
Visibility: 6 or more miles (10+ km)
Ceiling: ceiling and visibility are OK
Clouds: unknown
Weather: no significant weather observed at this time

METAR text: LFKJ 170430Z AUTO 04008KT 020V080 CAVOK 04/02 Q1027 NOSIG
Conditions at: LFKJ (AJACCIO/CAMPO OR, FR) observed 0430 UTC 17 January 2022
Temperature: 4.0°C (39°F)
Dewpoint: 2.0°C (36°F) [RH = 87%]
Pressure (altimeter): 30.32 inches Hg (1027.0 mb)
Winds: from the NE (40 degrees) at 9 MPH (8 knots; 4.1 m/s)
Visibility: 6 or more miles (10+ km)
Ceiling: ceiling and visibility are OK
Clouds: unknown
Weather: no significant weather observed at this time

Forecast for: LFKJ (AJACCIO/CAMPO OR, FR)
Text: TAF LFKJ 170200Z 1703/1803 05006KT CAVOK
Forecast period: 0300 to 0800 UTC 17 January 2022
Forecast type: FROM: standard forecast or significant change
Winds: from the NE (50 degrees) at 7 MPH (6 knots; 3.1 m/s)
Visibility: 6 or more miles (10+ km)
Ceiling: unknown
Clouds: missing
Weather: NSW  (no significant weather)
Text: BECMG 1708/1710 24008KT
Forecast period: 0800 to 1700 UTC 17 January 2022
Forecast type: BECOMING: Conditions expected to become as follows by 1000 UTC 17 January 2022
Winds: from the WSW (240 degrees) at 9 MPH (8 knots; 4.1 m/s)
Visibility: 6 or more miles (10+ km)
Ceiling: unknown
Clouds: missing
Weather: NSW  (no significant weather)
Text: BECMG 1717/1719 05006KT
Forecast period: 1700 UTC 17 January 2022 to 0300 UTC 18 January 2022
Forecast type: BECOMING: Conditions expected to become as follows by 1900 UTC 17 January 2022
Winds: from the NE (50 degrees) at 7 MPH (6 knots; 3.1 m/s)
Visibility: 6 or more miles (10+ km)
Ceiling: unknown
Clouds: missing
Weather: NSW  (no significant weather)

 MAPA DE AEROPUERTO

 INFORMACIÓN DE PISTA
Pista 02 Longitud 7897 ft Ancho 148 ft
Elevación 15 ft Umbral desplazado 0 ft Rumbo de pista 25
Pista 20 Longitud 7897 ft Ancho 148 ft
Elevación 18 ft Umbral desplazado 744 ft Rumbo de pista 205

 FRECUANCIAS DEL AEROPUERTO
Tipo AFIS Nombre AFIS Frecuencia 119.825 MHZ
Tipo APP Nombre AJACCIO AP Frecuencia 121.05 MHZ
Tipo ATIS Nombre AJACCIO AT Frecuencia 126.925 MHZ
Tipo GND Nombre AJACCIO GN Frecuencia 121.7 MHZ
Tipo TWR Nombre AJACCIO TW Frecuencia 118.075 MHZ

 RADIO AYUDAS DEL AEROPUERTO
Tipo NDB Nombre Ajaccio/Campo Dell Oro Frecuencia 341 KHZ




Normativa | Spanair Virtual © 2022 |